sensor_id;sensor_type;location;lat;lon;timestamp;P1;durP1;ratioP1;P2;durP2;ratioP2
58992;SDS011;44782;0.000;0.000;2023-04-26T00:00:34;3.90;;;3.60;;
58992;SDS011;44782;0.000;0.000;2023-04-26T00:02:50;4.50;;;4.10;;
58992;SDS011;44782;0.000;0.000;2023-04-26T00:05:07;4.50;;;4.10;;
58992;SDS011;44782;0.000;0.000;2023-04-26T00:07:23;4.57;;;3.80;;
58992;SDS011;44782;0.000;0.000;2023-04-26T00:09:39;4.40;;;4.00;;
58992;SDS011;44782;0.000;0.000;2023-04-26T00:11:56;4.27;;;3.87;;
58992;SDS011;44782;0.000;0.000;2023-04-26T00:14:12;5.20;;;3.83;;
58992;SDS011;44782;0.000;0.000;2023-04-26T00:16:28;4.10;;;3.70;;
58992;SDS011;44782;0.000;0.000;2023-04-26T00:18:43;4.33;;;3.90;;
58992;SDS011;44782;0.000;0.000;2023-04-26T00:21:00;5.07;;;3.80;;
58992;SDS011;44782;0.000;0.000;2023-04-26T00:23:15;3.83;;;3.50;;
58992;SDS011;44782;0.000;0.000;2023-04-26T00:25:32;4.20;;;3.80;;
58992;SDS011;44782;0.000;0.000;2023-04-26T00:27:47;4.17;;;3.77;;
58992;SDS011;44782;0.000;0.000;2023-04-26T00:30:04;4.30;;;3.90;;
58992;SDS011;44782;0.000;0.000;2023-04-26T00:32:20;3.57;;;3.27;;
58992;SDS011;44782;0.000;0.000;2023-04-26T00:34:36;3.73;;;3.43;;
58992;SDS011;44782;0.000;0.000;2023-04-26T00:36:52;3.60;;;3.30;;
58992;SDS011;44782;0.000;0.000;2023-04-26T00:39:08;4.03;;;3.63;;
58992;SDS011;44782;0.000;0.000;2023-04-26T00:41:24;3.60;;;3.30;;
58992;SDS011;44782;0.000;0.000;2023-04-26T00:43:40;3.47;;;3.17;;
58992;SDS011;44782;0.000;0.000;2023-04-26T00:45:56;3.93;;;3.50;;
58992;SDS011;44782;0.000;0.000;2023-04-26T00:48:12;3.90;;;3.50;;
58992;SDS011;44782;0.000;0.000;2023-04-26T00:50:30;3.87;;;3.47;;
58992;SDS011;44782;0.000;0.000;2023-04-26T00:52:46;3.77;;;3.37;;
58992;SDS011;44782;0.000;0.000;2023-04-26T00:55:02;3.50;;;3.20;;
58992;SDS011;44782;0.000;0.000;2023-04-26T00:57:18;3.87;;;3.47;;
58992;SDS011;44782;0.000;0.000;2023-04-26T00:59:35;3.43;;;3.13;;
58992;SDS011;44782;0.000;0.000;2023-04-26T01:01:51;3.27;;;2.97;;
58992;SDS011;44782;0.000;0.000;2023-04-26T01:04:06;3.47;;;3.17;;
58992;SDS011;44782;0.000;0.000;2023-04-26T01:06:22;3.40;;;3.10;;
58992;SDS011;44782;0.000;0.000;2023-04-26T01:08:38;3.63;;;3.23;;
58992;SDS011;44782;0.000;0.000;2023-04-26T01:10:54;3.50;;;3.20;;
58992;SDS011;44782;0.000;0.000;2023-04-26T01:13:10;3.60;;;3.30;;
58992;SDS011;44782;0.000;0.000;2023-04-26T01:15:26;3.57;;;2.90;;
58992;SDS011;44782;0.000;0.000;2023-04-26T01:17:47;3.53;;;3.23;;
58992;SDS011;44782;0.000;0.000;2023-04-26T01:20:04;3.73;;;3.43;;
58992;SDS011;44782;0.000;0.000;2023-04-26T01:22:22;3.43;;;3.13;;
58992;SDS011;44782;0.000;0.000;2023-04-26T01:24:38;3.40;;;3.10;;
58992;SDS011;44782;0.000;0.000;2023-04-26T01:26:57;3.50;;;3.20;;
58992;SDS011;44782;0.000;0.000;2023-04-26T01:29:16;3.63;;;3.33;;
58992;SDS011;44782;0.000;0.000;2023-04-26T01:31:33;3.27;;;3.00;;
58992;SDS011;44782;0.000;0.000;2023-04-26T01:33:50;3.57;;;3.27;;
58992;SDS011;44782;0.000;0.000;2023-04-26T01:36:08;3.37;;;3.00;;
58992;SDS011;44782;0.000;0.000;2023-04-26T01:38:24;3.20;;;2.90;;
58992;SDS011;44782;0.000;0.000;2023-04-26T01:40:40;3.93;;;3.20;;
58992;SDS011;44782;0.000;0.000;2023-04-26T01:42:59;3.23;;;2.93;;
58992;SDS011;44782;0.000;0.000;2023-04-26T01:45:17;3.37;;;3.07;;
58992;SDS011;44782;0.000;0.000;2023-04-26T01:47:32;3.27;;;2.93;;
58992;SDS011;44782;0.000;0.000;2023-04-26T01:49:48;3.10;;;2.90;;
58992;SDS011;44782;0.000;0.000;2023-04-26T01:52:04;3.23;;;2.97;;
58992;SDS011;44782;0.000;0.000;2023-04-26T01:54:19;3.40;;;3.07;;
58992;SDS011;44782;0.000;0.000;2023-04-26T01:56:35;3.30;;;3.00;;
58992;SDS011;44782;0.000;0.000;2023-04-26T01:58:50;3.47;;;3.17;;
58992;SDS011;44782;0.000;0.000;2023-04-26T02:01:07;3.20;;;2.90;;
58992;SDS011;44782;0.000;0.000;2023-04-26T02:03:23;3.17;;;2.90;;
58992;SDS011;44782;0.000;0.000;2023-04-26T02:05:39;3.00;;;2.70;;
58992;SDS011;44782;0.000;0.000;2023-04-26T02:10:18;3.43;;;3.13;;
58992;SDS011;44782;0.000;0.000;2023-04-26T02:12:34;3.07;;;2.77;;
58992;SDS011;44782;0.000;0.000;2023-04-26T02:14:50;3.20;;;2.90;;
58992;SDS011;44782;0.000;0.000;2023-04-26T02:17:05;3.47;;;3.17;;
58992;SDS011;44782;0.000;0.000;2023-04-26T02:19:22;3.40;;;3.10;;
58992;SDS011;44782;0.000;0.000;2023-04-26T02:24:06;3.40;;;3.10;;
58992;SDS011;44782;0.000;0.000;2023-04-26T02:26:22;3.17;;;2.87;;
58992;SDS011;44782;0.000;0.000;2023-04-26T02:28:38;3.53;;;3.23;;
58992;SDS011;44782;0.000;0.000;2023-04-26T02:30:53;3.60;;;3.30;;
58992;SDS011;44782;0.000;0.000;2023-04-26T02:33:10;3.13;;;2.83;;
58992;SDS011;44782;0.000;0.000;2023-04-26T02:35:26;4.03;;;3.70;;
58992;SDS011;44782;0.000;0.000;2023-04-26T02:37:41;3.90;;;3.50;;
58992;SDS011;44782;0.000;0.000;2023-04-26T02:39:57;3.23;;;3.00;;
58992;SDS011;44782;0.000;0.000;2023-04-26T02:42:13;3.50;;;3.20;;
58992;SDS011;44782;0.000;0.000;2023-04-26T02:44:28;3.50;;;3.20;;
58992;SDS011;44782;0.000;0.000;2023-04-26T02:46:47;4.40;;;4.00;;
58992;SDS011;44782;0.000;0.000;2023-04-26T02:49:03;3.80;;;3.50;;
58992;SDS011;44782;0.000;0.000;2023-04-26T02:51:18;3.70;;;3.27;;
58992;SDS011;44782;0.000;0.000;2023-04-26T02:53:34;4.03;;;3.63;;
58992;SDS011;44782;0.000;0.000;2023-04-26T02:55:50;3.67;;;3.37;;
58992;SDS011;44782;0.000;0.000;2023-04-26T02:58:05;3.60;;;3.30;;
58992;SDS011;44782;0.000;0.000;2023-04-26T03:00:21;3.73;;;3.43;;
58992;SDS011;44782;0.000;0.000;2023-04-26T03:02:38;3.77;;;3.47;;
58992;SDS011;44782;0.000;0.000;2023-04-26T03:04:54;3.80;;;3.50;;
58992;SDS011;44782;0.000;0.000;2023-04-26T03:07:10;3.60;;;3.30;;
58992;SDS011;44782;0.000;0.000;2023-04-26T03:09:26;3.60;;;3.30;;
58992;SDS011;44782;0.000;0.000;2023-04-26T03:11:42;3.77;;;3.47;;
58992;SDS011;44782;0.000;0.000;2023-04-26T03:13:57;3.70;;;3.40;;
58992;SDS011;44782;0.000;0.000;2023-04-26T03:16:13;3.90;;;3.60;;
58992;SDS011;44782;0.000;0.000;2023-04-26T03:18:28;3.70;;;3.40;;
58992;SDS011;44782;0.000;0.000;2023-04-26T03:20:44;3.70;;;3.40;;
58992;SDS011;44782;0.000;0.000;2023-04-26T03:23:00;3.43;;;3.13;;
58992;SDS011;44782;0.000;0.000;2023-04-26T03:25:16;3.70;;;3.40;;
58992;SDS011;44782;0.000;0.000;2023-04-26T03:27:32;3.67;;;3.37;;
58992;SDS011;44782;0.000;0.000;2023-04-26T03:29:47;4.00;;;3.60;;
58992;SDS011;44782;0.000;0.000;2023-04-26T03:32:03;3.57;;;3.27;;
58992;SDS011;44782;0.000;0.000;2023-04-26T03:34:20;3.80;;;3.40;;
58992;SDS011;44782;0.000;0.000;2023-04-26T03:36:35;3.70;;;3.40;;
58992;SDS011;44782;0.000;0.000;2023-04-26T03:38:51;4.30;;;3.90;;
58992;SDS011;44782;0.000;0.000;2023-04-26T03:41:07;4.00;;;3.60;;
58992;SDS011;44782;0.000;0.000;2023-04-26T03:43:22;4.10;;;3.70;;
58992;SDS011;44782;0.000;0.000;2023-04-26T03:45:38;3.73;;;3.43;;
58992;SDS011;44782;0.000;0.000;2023-04-26T03:47:54;3.67;;;3.37;;
58992;SDS011;44782;0.000;0.000;2023-04-26T03:50:10;4.20;;;3.80;;
58992;SDS011;44782;0.000;0.000;2023-04-26T03:52:26;3.93;;;3.53;;
58992;SDS011;44782;0.000;0.000;2023-04-26T03:54:41;4.43;;;4.03;;
58992;SDS011;44782;0.000;0.000;2023-04-26T03:56:57;4.60;;;3.93;;
58992;SDS011;44782;0.000;0.000;2023-04-26T03:59:13;4.50;;;4.10;;
58992;SDS011;44782;0.000;0.000;2023-04-26T04:01:28;4.40;;;4.00;;
58992;SDS011;44782;0.000;0.000;2023-04-26T04:03:44;4.30;;;3.90;;
58992;SDS011;44782;0.000;0.000;2023-04-26T04:06:00;4.57;;;4.17;;
58992;SDS011;44782;0.000;0.000;2023-04-26T04:08:15;4.20;;;3.80;;
58992;SDS011;44782;0.000;0.000;2023-04-26T04:10:31;4.20;;;3.80;;
58992;SDS011;44782;0.000;0.000;2023-04-26T04:12:47;4.60;;;4.10;;
58992;SDS011;44782;0.000;0.000;2023-04-26T04:15:04;4.60;;;4.20;;
58992;SDS011;44782;0.000;0.000;2023-04-26T04:17:19;4.40;;;4.00;;
58992;SDS011;44782;0.000;0.000;2023-04-26T04:19:36;4.43;;;4.03;;
58992;SDS011;44782;0.000;0.000;2023-04-26T04:21:52;4.27;;;3.87;;
58992;SDS011;44782;0.000;0.000;2023-04-26T04:24:07;4.77;;;4.37;;
58992;SDS011;44782;0.000;0.000;2023-04-26T04:26:23;4.50;;;3.80;;
58992;SDS011;44782;0.000;0.000;2023-04-26T04:28:39;4.37;;;3.97;;
58992;SDS011;44782;0.000;0.000;2023-04-26T04:30:55;4.20;;;3.80;;
58992;SDS011;44782;0.000;0.000;2023-04-26T04:33:11;4.47;;;4.07;;
58992;SDS011;44782;0.000;0.000;2023-04-26T04:35:30;4.50;;;4.10;;
58992;SDS011;44782;0.000;0.000;2023-04-26T04:37:47;4.80;;;4.30;;
58992;SDS011;44782;0.000;0.000;2023-04-26T04:40:04;4.33;;;3.93;;
58992;SDS011;44782;0.000;0.000;2023-04-26T04:42:20;4.27;;;3.80;;
58992;SDS011;44782;0.000;0.000;2023-04-26T04:44:36;4.93;;;4.47;;
58992;SDS011;44782;0.000;0.000;2023-04-26T04:46:52;4.43;;;4.03;;
58992;SDS011;44782;0.000;0.000;2023-04-26T04:49:08;4.43;;;4.00;;
58992;SDS011;44782;0.000;0.000;2023-04-26T04:51:26;4.53;;;4.13;;
58992;SDS011;44782;0.000;0.000;2023-04-26T04:53:42;4.20;;;3.83;;
58992;SDS011;44782;0.000;0.000;2023-04-26T04:55:57;4.87;;;4.37;;
58992;SDS011;44782;0.000;0.000;2023-04-26T04:58:13;4.67;;;4.27;;
58992;SDS011;44782;0.000;0.000;2023-04-26T05:00:29;4.70;;;4.03;;
58992;SDS011;44782;0.000;0.000;2023-04-26T05:02:45;3.90;;;3.57;;
58992;SDS011;44782;0.000;0.000;2023-04-26T05:05:01;4.13;;;3.73;;
58992;SDS011;44782;0.000;0.000;2023-04-26T05:07:18;4.33;;;3.93;;
58992;SDS011;44782;0.000;0.000;2023-04-26T05:09:34;4.10;;;3.70;;
58992;SDS011;44782;0.000;0.000;2023-04-26T05:11:51;4.40;;;4.00;;
58992;SDS011;44782;0.000;0.000;2023-04-26T05:14:06;4.43;;;4.03;;
58992;SDS011;44782;0.000;0.000;2023-04-26T05:16:22;4.33;;;3.80;;
58992;SDS011;44782;0.000;0.000;2023-04-26T05:18:37;3.90;;;3.60;;
58992;SDS011;44782;0.000;0.000;2023-04-26T05:20:53;4.07;;;3.67;;
58992;SDS011;44782;0.000;0.000;2023-04-26T05:23:09;4.13;;;3.80;;
58992;SDS011;44782;0.000;0.000;2023-04-26T05:25:24;4.00;;;3.60;;
58992;SDS011;44782;0.000;0.000;2023-04-26T05:27:40;4.23;;;3.83;;
58992;SDS011;44782;0.000;0.000;2023-04-26T05:29:56;3.83;;;3.47;;
58992;SDS011;44782;0.000;0.000;2023-04-26T05:32:11;3.63;;;3.33;;
58992;SDS011;44782;0.000;0.000;2023-04-26T05:34:27;3.80;;;3.40;;
58992;SDS011;44782;0.000;0.000;2023-04-26T05:36:42;3.60;;;3.30;;
58992;SDS011;44782;0.000;0.000;2023-04-26T05:38:58;3.67;;;3.30;;
58992;SDS011;44782;0.000;0.000;2023-04-26T05:41:14;3.60;;;3.30;;
58992;SDS011;44782;0.000;0.000;2023-04-26T05:43:29;3.57;;;3.27;;
58992;SDS011;44782;0.000;0.000;2023-04-26T05:45:49;3.80;;;3.37;;
58992;SDS011;44782;0.000;0.000;2023-04-26T05:48:08;3.50;;;3.20;;
58992;SDS011;44782;0.000;0.000;2023-04-26T05:50:24;3.23;;;2.93;;
58992;SDS011;44782;0.000;0.000;2023-04-26T05:52:40;3.93;;;3.00;;
58992;SDS011;44782;0.000;0.000;2023-04-26T05:54:55;3.57;;;3.27;;
58992;SDS011;44782;0.000;0.000;2023-04-26T05:57:11;3.30;;;3.03;;
58992;SDS011;44782;0.000;0.000;2023-04-26T05:59:27;3.77;;;3.10;;
58992;SDS011;44782;0.000;0.000;2023-04-26T06:01:46;3.10;;;2.83;;
58992;SDS011;44782;0.000;0.000;2023-04-26T06:04:02;2.90;;;2.67;;
58992;SDS011;44782;0.000;0.000;2023-04-26T06:06:18;3.20;;;2.90;;
58992;SDS011;44782;0.000;0.000;2023-04-26T06:08:34;3.50;;;3.20;;
58992;SDS011;44782;0.000;0.000;2023-04-26T06:10:49;3.00;;;2.70;;
58992;SDS011;44782;0.000;0.000;2023-04-26T06:13:05;2.77;;;2.57;;
58992;SDS011;44782;0.000;0.000;2023-04-26T06:15:21;3.87;;;2.70;;
58992;SDS011;44782;0.000;0.000;2023-04-26T06:17:36;2.67;;;2.47;;
58992;SDS011;44782;0.000;0.000;2023-04-26T06:19:52;3.10;;;2.80;;
58992;SDS011;44782;0.000;0.000;2023-04-26T06:22:08;2.83;;;2.53;;
58992;SDS011;44782;0.000;0.000;2023-04-26T06:24:24;3.00;;;2.70;;
58992;SDS011;44782;0.000;0.000;2023-04-26T06:26:39;3.10;;;2.73;;
58992;SDS011;44782;0.000;0.000;2023-04-26T06:28:55;2.90;;;2.60;;
58992;SDS011;44782;0.000;0.000;2023-04-26T06:31:11;2.60;;;2.40;;
58992;SDS011;44782;0.000;0.000;2023-04-26T06:33:27;2.70;;;2.50;;
58992;SDS011;44782;0.000;0.000;2023-04-26T06:35:42;2.60;;;2.40;;
58992;SDS011;44782;0.000;0.000;2023-04-26T06:37:58;2.80;;;2.57;;
58992;SDS011;44782;0.000;0.000;2023-04-26T06:40:14;3.23;;;2.70;;
58992;SDS011;44782;0.000;0.000;2023-04-26T06:42:29;2.60;;;2.40;;
58992;SDS011;44782;0.000;0.000;2023-04-26T06:44:45;2.70;;;2.50;;
58992;SDS011;44782;0.000;0.000;2023-04-26T06:47:01;2.40;;;2.20;;
58992;SDS011;44782;0.000;0.000;2023-04-26T06:49:16;2.57;;;2.37;;
58992;SDS011;44782;0.000;0.000;2023-04-26T06:51:32;2.33;;;2.13;;
58992;SDS011;44782;0.000;0.000;2023-04-26T06:53:48;2.63;;;2.43;;
58992;SDS011;44782;0.000;0.000;2023-04-26T06:56:03;2.93;;;2.60;;
58992;SDS011;44782;0.000;0.000;2023-04-26T06:58:19;2.37;;;2.17;;
58992;SDS011;44782;0.000;0.000;2023-04-26T07:00:35;2.60;;;2.40;;
58992;SDS011;44782;0.000;0.000;2023-04-26T07:02:51;2.50;;;2.30;;
58992;SDS011;44782;0.000;0.000;2023-04-26T07:05:06;2.60;;;2.40;;
58992;SDS011;44782;0.000;0.000;2023-04-26T07:07:22;3.60;;;2.20;;
58992;SDS011;44782;0.000;0.000;2023-04-26T07:09:38;2.33;;;2.13;;
58992;SDS011;44782;0.000;0.000;2023-04-26T07:11:53;2.73;;;2.33;;
58992;SDS011;44782;0.000;0.000;2023-04-26T07:14:09;2.30;;;2.10;;
58992;SDS011;44782;0.000;0.000;2023-04-26T07:16:26;2.37;;;2.17;;
58992;SDS011;44782;0.000;0.000;2023-04-26T07:18:41;2.10;;;1.90;;
58992;SDS011;44782;0.000;0.000;2023-04-26T07:20:57;2.53;;;2.20;;
58992;SDS011;44782;0.000;0.000;2023-04-26T07:23:13;2.47;;;2.13;;
58992;SDS011;44782;0.000;0.000;2023-04-26T07:25:28;2.47;;;2.27;;
58992;SDS011;44782;0.000;0.000;2023-04-26T07:27:44;2.63;;;2.43;;
58992;SDS011;44782;0.000;0.000;2023-04-26T07:30:00;2.40;;;2.20;;
58992;SDS011;44782;0.000;0.000;2023-04-26T07:32:15;2.20;;;2.00;;
58992;SDS011;44782;0.000;0.000;2023-04-26T07:34:31;2.33;;;2.13;;
58992;SDS011;44782;0.000;0.000;2023-04-26T07:36:47;2.33;;;2.13;;
58992;SDS011;44782;0.000;0.000;2023-04-26T07:39:02;2.40;;;2.20;;
58992;SDS011;44782;0.000;0.000;2023-04-26T07:41:23;2.53;;;2.23;;
58992;SDS011;44782;0.000;0.000;2023-04-26T07:43:38;2.70;;;2.30;;
58992;SDS011;44782;0.000;0.000;2023-04-26T07:45:54;2.87;;;2.30;;
58992;SDS011;44782;0.000;0.000;2023-04-26T07:48:15;2.30;;;2.10;;
58992;SDS011;44782;0.000;0.000;2023-04-26T07:50:31;2.43;;;2.20;;
58992;SDS011;44782;0.000;0.000;2023-04-26T07:52:47;2.37;;;1.90;;
58992;SDS011;44782;0.000;0.000;2023-04-26T07:55:02;2.50;;;2.30;;
58992;SDS011;44782;0.000;0.000;2023-04-26T07:57:18;3.10;;;2.23;;
58992;SDS011;44782;0.000;0.000;2023-04-26T07:59:34;2.43;;;2.20;;
58992;SDS011;44782;0.000;0.000;2023-04-26T08:01:50;2.30;;;2.10;;
58992;SDS011;44782;0.000;0.000;2023-04-26T08:04:05;2.40;;;2.20;;
58992;SDS011;44782;0.000;0.000;2023-04-26T08:06:22;2.90;;;2.20;;
58992;SDS011;44782;0.000;0.000;2023-04-26T08:08:37;2.30;;;2.10;;
58992;SDS011;44782;0.000;0.000;2023-04-26T08:10:58;2.20;;;2.00;;
58992;SDS011;44782;0.000;0.000;2023-04-26T08:13:14;2.67;;;1.80;;
58992;SDS011;44782;0.000;0.000;2023-04-26T08:15:30;2.23;;;2.03;;
58992;SDS011;44782;0.000;0.000;2023-04-26T08:17:46;2.43;;;1.90;;
58992;SDS011;44782;0.000;0.000;2023-04-26T08:20:02;2.33;;;2.10;;
58992;SDS011;44782;0.000;0.000;2023-04-26T08:22:20;2.67;;;2.13;;
58992;SDS011;44782;0.000;0.000;2023-04-26T08:24:35;2.30;;;2.10;;
58992;SDS011;44782;0.000;0.000;2023-04-26T08:26:51;2.00;;;1.83;;
58992;SDS011;44782;0.000;0.000;2023-04-26T08:29:07;2.10;;;1.90;;
58992;SDS011;44782;0.000;0.000;2023-04-26T08:31:22;2.37;;;2.17;;
58992;SDS011;44782;0.000;0.000;2023-04-26T08:33:38;2.00;;;1.80;;
58992;SDS011;44782;0.000;0.000;2023-04-26T08:35:54;2.40;;;2.20;;
58992;SDS011;44782;0.000;0.000;2023-04-26T08:38:10;2.17;;;1.90;;
58992;SDS011;44782;0.000;0.000;2023-04-26T08:40:26;2.40;;;1.90;;
58992;SDS011;44782;0.000;0.000;2023-04-26T08:42:42;2.20;;;2.00;;
58992;SDS011;44782;0.000;0.000;2023-04-26T08:45:00;2.40;;;1.97;;
58992;SDS011;44782;0.000;0.000;2023-04-26T08:47:18;2.60;;;2.10;;
58992;SDS011;44782;0.000;0.000;2023-04-26T08:51:58;1.97;;;1.80;;
58992;SDS011;44782;0.000;0.000;2023-04-26T08:54:15;2.10;;;1.90;;
58992;SDS011;44782;0.000;0.000;2023-04-26T08:56:32;2.07;;;1.83;;
58992;SDS011;44782;0.000;0.000;2023-04-26T08:58:49;2.00;;;1.80;;
58992;SDS011;44782;0.000;0.000;2023-04-26T09:01:05;2.13;;;1.93;;
58992;SDS011;44782;0.000;0.000;2023-04-26T09:03:24;2.10;;;1.80;;
58992;SDS011;44782;0.000;0.000;2023-04-26T09:05:40;2.20;;;2.00;;
58992;SDS011;44782;0.000;0.000;2023-04-26T09:08:00;1.90;;;1.80;;
58992;SDS011;44782;0.000;0.000;2023-04-26T09:10:17;2.10;;;1.70;;
58992;SDS011;44782;0.000;0.000;2023-04-26T09:12:38;2.40;;;2.00;;
58992;SDS011;44782;0.000;0.000;2023-04-26T09:14:53;1.80;;;1.70;;
58992;SDS011;44782;0.000;0.000;2023-04-26T09:17:23;2.03;;;1.70;;
58992;SDS011;44782;0.000;0.000;2023-04-26T09:19:40;1.97;;;1.70;;
58992;SDS011;44782;0.000;0.000;2023-04-26T09:21:56;1.93;;;1.73;;
58992;SDS011;44782;0.000;0.000;2023-04-26T09:24:12;1.80;;;1.70;;
58992;SDS011;44782;0.000;0.000;2023-04-26T09:26:28;1.63;;;1.53;;
58992;SDS011;44782;0.000;0.000;2023-04-26T09:28:43;2.20;;;1.60;;
58992;SDS011;44782;0.000;0.000;2023-04-26T09:31:00;2.00;;;1.80;;
58992;SDS011;44782;0.000;0.000;2023-04-26T09:33:16;1.60;;;1.50;;
58992;SDS011;44782;0.000;0.000;2023-04-26T09:35:34;1.90;;;1.67;;
58992;SDS011;44782;0.000;0.000;2023-04-26T09:37:52;1.80;;;1.70;;
58992;SDS011;44782;0.000;0.000;2023-04-26T09:40:10;1.90;;;1.80;;
58992;SDS011;44782;0.000;0.000;2023-04-26T09:42:33;1.70;;;1.60;;
58992;SDS011;44782;0.000;0.000;2023-04-26T09:44:49;1.73;;;1.63;;
58992;SDS011;44782;0.000;0.000;2023-04-26T09:49:26;1.90;;;1.70;;
58992;SDS011;44782;0.000;0.000;2023-04-26T09:51:49;1.70;;;1.60;;
58992;SDS011;44782;0.000;0.000;2023-04-26T09:54:14;2.30;;;1.90;;
58992;SDS011;44782;0.000;0.000;2023-04-26T09:56:30;1.90;;;1.60;;
58992;SDS011;44782;0.000;0.000;2023-04-26T10:01:01;2.60;;;1.70;;
58992;SDS011;44782;0.000;0.000;2023-04-26T10:03:19;1.73;;;1.57;;
58992;SDS011;44782;0.000;0.000;2023-04-26T10:05:37;2.13;;;1.70;;
58992;SDS011;44782;0.000;0.000;2023-04-26T10:07:53;1.73;;;1.63;;
58992;SDS011;44782;0.000;0.000;2023-04-26T10:10:09;1.77;;;1.67;;
58992;SDS011;44782;0.000;0.000;2023-04-26T10:12:26;1.90;;;1.70;;
58992;SDS011;44782;0.000;0.000;2023-04-26T10:14:43;2.37;;;1.80;;
58992;SDS011;44782;0.000;0.000;2023-04-26T10:17:00;1.83;;;1.53;;
58992;SDS011;44782;0.000;0.000;2023-04-26T10:19:18;1.70;;;1.60;;
58992;SDS011;44782;0.000;0.000;2023-04-26T10:21:35;2.00;;;1.80;;
58992;SDS011;44782;0.000;0.000;2023-04-26T10:23:53;2.20;;;1.50;;
58992;SDS011;44782;0.000;0.000;2023-04-26T10:29:08;2.07;;;1.70;;
58992;SDS011;44782;0.000;0.000;2023-04-26T10:31:24;1.60;;;1.50;;
58992;SDS011;44782;0.000;0.000;2023-04-26T10:33:39;1.53;;;1.43;;
58992;SDS011;44782;0.000;0.000;2023-04-26T10:35:59;1.80;;;1.70;;
58992;SDS011;44782;0.000;0.000;2023-04-26T10:38:18;1.90;;;1.70;;
58992;SDS011;44782;0.000;0.000;2023-04-26T10:40:38;2.37;;;1.60;;
58992;SDS011;44782;0.000;0.000;2023-04-26T10:45:26;2.27;;;1.70;;
58992;SDS011;44782;0.000;0.000;2023-04-26T10:47:43;1.90;;;1.50;;
58992;SDS011;44782;0.000;0.000;2023-04-26T10:50:03;2.90;;;1.90;;
58992;SDS011;44782;0.000;0.000;2023-04-26T10:52:20;2.23;;;1.53;;
58992;SDS011;44782;0.000;0.000;2023-04-26T10:54:55;1.93;;;1.60;;
58992;SDS011;44782;0.000;0.000;2023-04-26T10:57:12;1.97;;;1.77;;
58992;SDS011;44782;0.000;0.000;2023-04-26T10:59:29;2.33;;;1.50;;
58992;SDS011;44782;0.000;0.000;2023-04-26T11:01:45;1.90;;;1.57;;
58992;SDS011;44782;0.000;0.000;2023-04-26T11:04:05;2.10;;;1.63;;
58992;SDS011;44782;0.000;0.000;2023-04-26T11:06:23;1.60;;;1.50;;
58992;SDS011;44782;0.000;0.000;2023-04-26T11:08:39;1.67;;;1.57;;
58992;SDS011;44782;0.000;0.000;2023-04-26T11:13:17;2.07;;;1.70;;
58992;SDS011;44782;0.000;0.000;2023-04-26T11:15:36;1.50;;;1.40;;
58992;SDS011;44782;0.000;0.000;2023-04-26T11:17:51;1.83;;;1.30;;
58992;SDS011;44782;0.000;0.000;2023-04-26T11:20:14;1.50;;;1.40;;
58992;SDS011;44782;0.000;0.000;2023-04-26T11:22:30;1.83;;;1.70;;
58992;SDS011;44782;0.000;0.000;2023-04-26T11:24:46;1.60;;;1.50;;
58992;SDS011;44782;0.000;0.000;2023-04-26T11:27:06;1.60;;;1.50;;
58992;SDS011;44782;0.000;0.000;2023-04-26T11:29:26;1.50;;;1.40;;
58992;SDS011;44782;0.000;0.000;2023-04-26T11:31:43;1.40;;;1.30;;
58992;SDS011;44782;0.000;0.000;2023-04-26T11:34:05;1.73;;;1.60;;
58992;SDS011;44782;0.000;0.000;2023-04-26T11:36:21;1.40;;;1.30;;
58992;SDS011;44782;0.000;0.000;2023-04-26T11:38:38;1.60;;;1.50;;
58992;SDS011;44782;0.000;0.000;2023-04-26T11:40:55;1.70;;;1.43;;
58992;SDS011;44782;0.000;0.000;2023-04-26T11:43:14;1.70;;;1.53;;
58992;SDS011;44782;0.000;0.000;2023-04-26T11:45:35;1.67;;;1.57;;
58992;SDS011;44782;0.000;0.000;2023-04-26T11:47:51;1.60;;;1.50;;
58992;SDS011;44782;0.000;0.000;2023-04-26T11:50:07;1.47;;;1.37;;
58992;SDS011;44782;0.000;0.000;2023-04-26T11:52:24;1.23;;;1.20;;
58992;SDS011;44782;0.000;0.000;2023-04-26T11:54:40;1.70;;;1.60;;
58992;SDS011;44782;0.000;0.000;2023-04-26T11:56:58;1.67;;;1.40;;
58992;SDS011;44782;0.000;0.000;2023-04-26T11:59:14;1.60;;;1.50;;
58992;SDS011;44782;0.000;0.000;2023-04-26T12:01:41;1.43;;;1.33;;
58992;SDS011;44782;0.000;0.000;2023-04-26T12:04:08;1.70;;;1.60;;
58992;SDS011;44782;0.000;0.000;2023-04-26T12:06:25;1.70;;;1.60;;
58992;SDS011;44782;0.000;0.000;2023-04-26T12:08:50;1.33;;;1.23;;
58992;SDS011;44782;0.000;0.000;2023-04-26T12:11:06;1.70;;;1.60;;
58992;SDS011;44782;0.000;0.000;2023-04-26T12:13:22;1.60;;;1.50;;
58992;SDS011;44782;0.000;0.000;2023-04-26T12:15:39;1.50;;;1.40;;
58992;SDS011;44782;0.000;0.000;2023-04-26T12:17:59;1.70;;;1.40;;
58992;SDS011;44782;0.000;0.000;2023-04-26T12:20:27;1.60;;;1.50;;
58992;SDS011;44782;0.000;0.000;2023-04-26T12:25:13;1.70;;;1.60;;
58992;SDS011;44782;0.000;0.000;2023-04-26T12:27:29;1.50;;;1.40;;
58992;SDS011;44782;0.000;0.000;2023-04-26T12:29:45;1.30;;;1.20;;
58992;SDS011;44782;0.000;0.000;2023-04-26T12:32:00;1.53;;;1.37;;
58992;SDS011;44782;0.000;0.000;2023-04-26T12:34:16;1.40;;;1.30;;
58992;SDS011;44782;0.000;0.000;2023-04-26T12:36:32;1.67;;;1.57;;
58992;SDS011;44782;0.000;0.000;2023-04-26T12:38:48;1.47;;;1.30;;
58992;SDS011;44782;0.000;0.000;2023-04-26T12:41:03;1.63;;;1.50;;
58992;SDS011;44782;0.000;0.000;2023-04-26T12:43:19;1.60;;;1.40;;
58992;SDS011;44782;0.000;0.000;2023-04-26T12:45:38;1.60;;;1.50;;
58992;SDS011;44782;0.000;0.000;2023-04-26T12:47:53;2.03;;;1.60;;
58992;SDS011;44782;0.000;0.000;2023-04-26T12:50:09;1.70;;;1.57;;
58992;SDS011;44782;0.000;0.000;2023-04-26T12:52:26;1.53;;;1.43;;
58992;SDS011;44782;0.000;0.000;2023-04-26T12:54:42;1.60;;;1.50;;
58992;SDS011;44782;0.000;0.000;2023-04-26T12:56:58;1.70;;;1.60;;
58992;SDS011;44782;0.000;0.000;2023-04-26T12:59:14;2.30;;;1.53;;
58992;SDS011;44782;0.000;0.000;2023-04-26T13:01:30;1.80;;;1.30;;
58992;SDS011;44782;0.000;0.000;2023-04-26T13:03:46;1.40;;;1.30;;
58992;SDS011;44782;0.000;0.000;2023-04-26T13:06:01;1.53;;;1.40;;
58992;SDS011;44782;0.000;0.000;2023-04-26T13:08:17;1.70;;;1.50;;
58992;SDS011;44782;0.000;0.000;2023-04-26T13:10:33;1.60;;;1.50;;
58992;SDS011;44782;0.000;0.000;2023-04-26T13:12:49;1.37;;;1.27;;
58992;SDS011;44782;0.000;0.000;2023-04-26T13:15:07;1.60;;;1.50;;
58992;SDS011;44782;0.000;0.000;2023-04-26T13:17:23;2.07;;;1.30;;
58992;SDS011;44782;0.000;0.000;2023-04-26T13:19:39;1.90;;;1.40;;
58992;SDS011;44782;0.000;0.000;2023-04-26T13:21:55;1.40;;;1.30;;
58992;SDS011;44782;0.000;0.000;2023-04-26T13:24:11;1.60;;;1.50;;
58992;SDS011;44782;0.000;0.000;2023-04-26T13:26:26;1.50;;;1.40;;
58992;SDS011;44782;0.000;0.000;2023-04-26T13:28:42;1.60;;;1.40;;
58992;SDS011;44782;0.000;0.000;2023-04-26T13:30:58;2.83;;;1.40;;
58992;SDS011;44782;0.000;0.000;2023-04-26T13:33:13;1.77;;;1.60;;
58992;SDS011;44782;0.000;0.000;2023-04-26T13:35:29;2.00;;;1.80;;
58992;SDS011;44782;0.000;0.000;2023-04-26T13:37:45;1.40;;;1.30;;
58992;SDS011;44782;0.000;0.000;2023-04-26T13:40:01;1.57;;;1.47;;
58992;SDS011;44782;0.000;0.000;2023-04-26T13:42:18;1.73;;;1.50;;
58992;SDS011;44782;0.000;0.000;2023-04-26T13:44:34;1.67;;;1.53;;
58992;SDS011;44782;0.000;0.000;2023-04-26T13:46:50;1.43;;;1.33;;
58992;SDS011;44782;0.000;0.000;2023-04-26T13:49:07;1.60;;;1.50;;
58992;SDS011;44782;0.000;0.000;2023-04-26T13:51:24;1.57;;;1.40;;
58992;SDS011;44782;0.000;0.000;2023-04-26T13:53:41;1.77;;;1.60;;
58992;SDS011;44782;0.000;0.000;2023-04-26T13:55:56;1.93;;;1.73;;
58992;SDS011;44782;0.000;0.000;2023-04-26T13:58:12;1.57;;;1.43;;
58992;SDS011;44782;0.000;0.000;2023-04-26T14:00:27;1.70;;;1.50;;
58992;SDS011;44782;0.000;0.000;2023-04-26T14:02:43;1.47;;;1.37;;
58992;SDS011;44782;0.000;0.000;2023-04-26T14:04:59;1.63;;;1.53;;
58992;SDS011;44782;0.000;0.000;2023-04-26T14:07:15;1.60;;;1.47;;
58992;SDS011;44782;0.000;0.000;2023-04-26T14:09:31;1.50;;;1.40;;
58992;SDS011;44782;0.000;0.000;2023-04-26T14:11:46;1.50;;;1.40;;
58992;SDS011;44782;0.000;0.000;2023-04-26T14:14:02;1.73;;;1.40;;
58992;SDS011;44782;0.000;0.000;2023-04-26T14:16:18;1.50;;;1.40;;